Time;durP1;ratioP1;P1;durP2;ratioP2;P2;SDS_P1;SDS_P2;PMS_P1;PMS_P2;Temp;Humidity;BMP_temperature;BMP_pressure;BME280_temperature;BME280_humidity;BME280_pressure;Samples;Min_cycle;Max_cycle;Signal;HPM_P1;HPM_P2
2021/06/23 00:00:31;;;;;;;1.52;0.57;;;19.60;99.90;;;;;;3597323;40;20707;-71
2021/06/23 00:02:57;;;;;;;2.53;0.63;;;19.50;99.90;;;;;;3597369;40;20384;-71
2021/06/23 00:05:23;;;;;;;1.30;0.60;;;19.50;99.90;;;;;;3594181;40;20432;-69
2021/06/23 00:07:49;;;;;;;2.42;0.60;;;19.60;99.90;;;;;;3591648;40;20416;-71
2021/06/23 00:10:15;;;;;;;2.88;0.80;;;19.60;99.90;;;;;;3597123;40;20385;-71
2021/06/23 00:12:42;;;;;;;1.43;0.60;;;19.80;99.90;;;;;;3598403;39;20770;-71
2021/06/23 00:15:11;;;;;;;1.48;0.52;;;19.80;99.90;;;;;;3593561;40;20396;-71
2021/06/23 00:17:38;;;;;;;1.25;0.60;;;19.70;99.90;;;;;;3597459;40;20490;-71
2021/06/23 00:20:06;;;;;;;1.95;0.50;;;19.80;99.90;;;;;;3597181;40;20462;-72
2021/06/23 00:22:33;;;;;;;2.65;0.60;;;19.80;99.90;;;;;;3590234;39;20766;-71
2021/06/23 00:24:59;;;;;;;1.40;0.57;;;19.70;99.90;;;;;;3600698;39;20409;-71
2021/06/23 00:27:25;;;;;;;1.08;0.63;;;19.60;99.90;;;;;;3597115;40;20392;-71
2021/06/23 00:29:51;;;;;;;1.33;0.52;;;19.60;99.90;;;;;;3597256;39;20377;-71
2021/06/23 00:32:19;;;;;;;2.53;0.50;;;19.70;99.90;;;;;;3596789;40;20412;-71
2021/06/23 00:34:48;;;;;;;3.00;0.75;;;19.70;99.90;;;;;;3596624;39;20430;-72
2021/06/23 00:37:14;;;;;;;2.85;0.80;;;19.80;99.90;;;;;;3598307;39;20379;-71
2021/06/23 00:39:40;;;;;;;1.20;0.60;;;19.80;99.90;;;;;;3597302;40;20813;-71
2021/06/23 00:42:08;;;;;;;2.08;0.80;;;19.80;99.90;;;;;;3597747;39;20387;-71
2021/06/23 00:44:35;;;;;;;1.92;0.80;;;19.80;99.90;;;;;;3595289;39;20384;-71
2021/06/23 00:47:01;;;;;;;2.85;0.50;;;19.80;99.90;;;;;;3598285;39;20393;-71
2021/06/23 00:49:30;;;;;;;2.08;0.50;;;19.80;99.90;;;;;;3598050;39;20396;-71
2021/06/23 00:51:58;;;;;;;1.60;0.50;;;19.80;99.90;;;;;;3597144;40;20373;-71
2021/06/23 00:54:24;;;;;;;1.02;0.50;;;19.80;99.90;;;;;;3598630;39;20641;-71
2021/06/23 00:56:50;;;;;;;1.67;0.70;;;19.80;99.90;;;;;;3597190;40;20843;-71
2021/06/23 00:59:17;;;;;;;1.10;0.50;;;19.70;99.90;;;;;;3597027;40;20380;-71
2021/06/23 01:01:43;;;;;;;1.70;0.50;;;19.70;99.90;;;;;;3597161;40;20372;-71
2021/06/23 01:04:10;;;;;;;1.93;0.50;;;19.70;99.90;;;;;;3596855;39;20416;-71
2021/06/23 01:06:36;;;;;;;2.58;0.70;;;19.60;99.90;;;;;;3597079;40;20392;-71
2021/06/23 01:09:04;;;;;;;2.17;0.50;;;19.50;99.90;;;;;;3597162;40;20747;-71
2021/06/23 01:11:30;;;;;;;0.98;0.50;;;19.50;99.90;;;;;;3597367;40;20630;-72
2021/06/23 01:13:58;;;;;;;1.88;0.60;;;19.60;99.90;;;;;;3597068;40;20392;-71
2021/06/23 01:16:27;;;;;;;2.83;0.50;;;19.50;99.90;;;;;;3596986;40;20387;-71
2021/06/23 01:18:53;;;;;;;2.30;0.50;;;19.70;99.90;;;;;;3598044;39;20744;-71
2021/06/23 01:21:19;;;;;;;2.10;0.70;;;19.60;99.90;;;;;;3597178;40;20762;-71
2021/06/23 01:23:47;;;;;;;3.05;0.57;;;19.60;99.90;;;;;;3596719;40;20470;-71
2021/06/23 01:26:15;;;;;;;1.43;0.60;;;19.50;99.90;;;;;;3597219;40;20642;-71
2021/06/23 01:28:41;;;;;;;0.95;0.40;;;19.40;99.90;;;;;;3601157;39;20401;-71
2021/06/23 01:31:07;;;;;;;1.50;0.40;;;19.60;99.90;;;;;;3597127;40;20750;-71
2021/06/23 01:33:35;;;;;;;1.63;0.43;;;19.50;99.90;;;;;;3596873;40;20859;-71
2021/06/23 01:36:01;;;;;;;2.92;0.70;;;19.50;99.90;;;;;;3596860;39;20384;-71
2021/06/23 01:38:27;;;;;;;2.40;0.70;;;19.50;99.90;;;;;;3600130;39;20766;-71
2021/06/23 01:40:55;;;;;;;3.70;0.60;;;19.40;99.90;;;;;;3596854;40;20858;-72
2021/06/23 01:43:21;;;;;;;2.25;0.70;;;;;;;;;;3592160;40;20449;-71
2021/06/23 01:45:48;;;;;;;1.00;0.50;;;19.30;99.90;;;;;;3596938;39;20357;-71
2021/06/23 01:48:15;;;;;;;1.17;0.50;;;19.20;99.90;;;;;;3596904;39;20404;-71
2021/06/23 01:50:42;;;;;;;2.70;0.67;;;19.30;99.90;;;;;;3594214;40;20435;-71
2021/06/23 01:53:08;;;;;;;1.70;0.60;;;19.30;99.90;;;;;;3596781;40;20416;-71
2021/06/23 01:55:34;;;;;;;1.50;0.50;;;19.30;99.90;;;;;;3596752;40;20730;-71
2021/06/23 01:58:04;;;;;;;2.60;0.50;;;19.30;99.90;;;;;;3596726;40;20762;-72
2021/06/23 02:00:44;;;;;;;2.13;0.50;;;19.20;99.90;;;;;;3597593;39;20388;-71
2021/06/23 02:03:16;;;;;;;1.85;0.50;;;19.20;99.90;;;;;;3597939;40;20443;-71
2021/06/23 02:05:50;;;;;;;1.88;0.60;;;19.30;99.90;;;;;;3598910;39;20653;-73
2021/06/23 02:08:31;;;;;;;2.88;0.60;;;19.30;99.90;;;;;;3598443;40;20730;-72
2021/06/23 02:11:17;;;;;;;2.28;0.50;;;19.30;99.90;;;;;;3598829;40;20373;-72
2021/06/23 02:14:19;;;;;;;2.03;0.70;;;19.30;99.90;;;;;;3597798;40;20388;-72
2021/06/23 02:16:48;;;;;;;1.70;0.40;;;19.40;99.90;;;;;;3600484;39;20360;-72
2021/06/23 02:19:14;;;;;;;1.75;0.50;;;19.40;99.90;;;;;;3596711;40;20469;-72
2021/06/23 02:21:40;;;;;;;1.23;0.65;;;19.40;99.90;;;;;;3599637;39;20377;-72
2021/06/23 02:24:09;;;;;;;0.95;0.50;;;19.40;99.90;;;;;;3598362;40;20481;-72
2021/06/23 02:26:36;;;;;;;1.85;0.63;;;19.40;99.90;;;;;;3589668;40;20397;-71
2021/06/23 02:29:03;;;;;;;2.30;0.50;;;19.50;99.90;;;;;;3585744;39;20398;-73
2021/06/23 02:31:31;;;;;;;1.50;0.57;;;19.40;99.90;;;;;;3602577;39;20486;-73
2021/06/23 02:33:59;;;;;;;1.85;0.50;;;19.60;99.90;;;;;;3598695;40;20399;-74
2021/06/23 02:36:26;;;;;;;3.78;0.60;;;19.50;99.90;;;;;;3599005;40;20383;-74
2021/06/23 02:38:52;;;;;;;1.55;0.40;;;19.50;99.90;;;;;;3598990;39;20381;-73
2021/06/23 02:41:22;;;;;;;2.30;0.40;;;19.50;99.90;;;;;;3598056;39;20462;-72
2021/06/23 02:43:48;;;;;;;1.40;0.40;;;19.40;99.90;;;;;;3598820;40;20633;-72
2021/06/23 02:46:15;;;;;;;1.70;0.50;;;19.40;99.90;;;;;;3590237;40;20406;-73
2021/06/23 02:48:41;;;;;;;2.40;0.60;;;19.50;99.90;;;;;;3598863;40;20379;-73
2021/06/23 02:51:15;;;;;;;1.88;0.52;;;19.50;99.90;;;;;;3593919;40;20792;-74
2021/06/23 02:53:43;;;;;;;3.03;0.50;;;19.50;99.90;;;;;;3599194;40;20377;-75
2021/06/23 02:56:09;;;;;;;2.30;0.77;;;19.40;99.90;;;;;;3599006;40;20474;-73
2021/06/23 02:58:36;;;;;;;0.55;0.40;;;19.30;99.90;;;;;;3585268;40;20428;-73
2021/06/23 03:01:03;;;;;;;1.33;0.50;;;19.20;99.90;;;;;;3592939;40;20494;-74
2021/06/23 03:03:29;;;;;;;1.50;0.40;;;19.20;99.90;;;;;;3598183;40;20415;-74
2021/06/23 03:05:55;;;;;;;0.90;0.40;;;19.20;99.90;;;;;;3598577;40;20400;-73
2021/06/23 03:08:22;;;;;;;1.73;0.40;;;19.30;99.90;;;;;;3598702;40;20377;-73
2021/06/23 03:10:48;;;;;;;1.73;0.70;;;19.40;99.90;;;;;;3599036;39;20458;-74
2021/06/23 03:13:14;;;;;;;0.93;0.50;;;19.50;99.90;;;;;;3598890;39;20408;-73
2021/06/23 03:15:40;;;;;;;1.20;0.50;;;19.60;99.90;;;;;;3601609;39;20396;-73
2021/06/23 03:18:06;;;;;;;2.70;0.50;;;19.60;99.90;;;;;;3599425;40;20382;-73
2021/06/23 03:20:32;;;;;;;1.38;0.50;;;19.50;99.90;;;;;;3598057;40;20471;-72
2021/06/23 03:22:58;;;;;;;1.33;0.57;;;19.50;99.90;;;;;;3598727;39;20657;-73
2021/06/23 03:25:26;;;;;;;2.10;0.57;;;19.50;99.90;;;;;;3598346;40;20761;-73
2021/06/23 03:27:53;;;;;;;1.25;0.50;;;19.50;99.90;;;;;;3599266;40;20712;-73
2021/06/23 03:30:21;;;;;;;2.25;0.80;;;19.40;99.90;;;;;;3598484;39;20450;-72
2021/06/23 03:32:48;;;;;;;1.25;0.55;;;19.30;99.90;;;;;;3591885;40;20405;-72
2021/06/23 03:35:14;;;;;;;1.33;0.40;;;19.30;99.90;;;;;;3592466;39;20617;-73
2021/06/23 03:37:40;;;;;;;2.10;0.70;;;19.30;99.90;;;;;;3600579;39;20395;-73
2021/06/23 03:40:07;;;;;;;1.08;0.45;;;19.30;99.90;;;;;;3598870;40;20377;-73
2021/06/23 03:42:34;;;;;;;1.40;0.80;;;19.20;99.90;;;;;;3596607;39;20408;-72
2021/06/23 03:45:00;;;;;;;1.33;0.57;;;19.20;99.90;;;;;;3593036;40;20730;-74
2021/06/23 03:47:26;;;;;;;2.53;0.60;;;19.20;99.90;;;;;;3597172;39;20399;-73
2021/06/23 03:49:52;;;;;;;2.67;0.50;;;19.30;99.90;;;;;;3597934;40;20626;-72
2021/06/23 03:52:18;;;;;;;1.90;0.50;;;19.30;99.90;;;;;;3599215;39;20376;-72
2021/06/23 03:54:44;;;;;;;1.83;0.60;;;19.10;99.90;;;;;;3598058;40;20809;-71
2021/06/23 03:57:10;;;;;;;1.05;0.50;;;19.00;99.90;;;;;;3597937;39;20435;-70
2021/06/23 03:59:37;;;;;;;1.02;0.50;;;18.90;99.90;;;;;;3591755;40;20392;-71
2021/06/23 04:02:03;;;;;;;2.40;0.53;;;18.90;99.90;;;;;;3581921;40;20436;-70
2021/06/23 04:04:29;;;;;;;1.00;0.50;;;18.80;99.90;;;;;;3597712;40;20416;-70
2021/06/23 04:06:55;;;;;;;2.00;0.50;;;18.80;99.90;;;;;;3599889;39;20774;-70
2021/06/23 04:09:21;;;;;;;1.75;0.60;;;19.00;99.90;;;;;;3598328;39;20365;-72
2021/06/23 04:11:47;;;;;;;2.72;0.50;;;19.00;99.90;;;;;;3582263;40;20392;-72
2021/06/23 04:14:13;;;;;;;1.85;0.50;;;19.10;99.90;;;;;;3592704;40;20585;-72
2021/06/23 04:16:40;;;;;;;2.30;0.50;;;19.10;99.90;;;;;;3598610;40;20373;-72
2021/06/23 04:19:06;;;;;;;2.28;0.50;;;19.10;99.90;;;;;;3598408;40;20388;-71
2021/06/23 04:21:32;;;;;;;2.43;0.60;;;19.00;99.90;;;;;;3592738;40;20403;-71
2021/06/23 04:23:58;;;;;;;0.77;0.50;;;18.90;99.90;;;;;;3599965;39;20404;-71
2021/06/23 04:26:24;;;;;;;0.80;0.50;;;19.00;99.90;;;;;;3598720;39;20510;-72
2021/06/23 04:28:50;;;;;;;2.03;0.50;;;18.90;99.90;;;;;;3600461;39;20793;-71
2021/06/23 04:31:16;;;;;;;1.80;0.60;;;19.00;99.90;;;;;;3591710;40;20395;-72
2021/06/23 04:33:43;;;;;;;4.50;0.57;;;18.90;99.90;;;;;;3598562;40;20470;-74
2021/06/23 04:36:09;;;;;;;1.30;0.50;;;19.00;99.90;;;;;;3598459;40;20385;-74
2021/06/23 04:38:36;;;;;;;2.08;0.50;;;19.00;99.90;;;;;;3599834;39;20443;-75
2021/06/23 04:41:02;;;;;;;2.35;0.70;;;18.90;99.90;;;;;;3591559;40;20387;-74
2021/06/23 04:43:28;;;;;;;2.40;0.60;;;18.90;99.90;;;;;;3598808;40;20424;-74
2021/06/23 04:45:54;;;;;;;1.00;0.50;;;19.00;99.90;;;;;;3589771;40;20485;-75
2021/06/23 04:48:20;;;;;;;2.55;0.80;;;19.10;99.90;;;;;;3598716;39;20437;-74
2021/06/23 04:50:47;;;;;;;1.88;0.50;;;19.20;99.90;;;;;;3589747;40;20375;-74
2021/06/23 04:53:13;;;;;;;1.83;0.57;;;19.20;99.90;;;;;;3599183;39;20396;-74
2021/06/23 04:55:39;;;;;;;0.93;0.60;;;19.40;99.90;;;;;;3598392;40;20483;-74
2021/06/23 04:58:05;;;;;;;2.50;0.82;;;19.30;99.90;;;;;;3598181;40;20469;-75
2021/06/23 05:00:31;;;;;;;4.57;0.67;;;19.20;99.90;;;;;;3598088;40;20400;-74
2021/06/23 05:02:56;;;;;;;0.93;0.50;;;19.30;99.90;;;;;;3597868;40;20424;-73
2021/06/23 05:05:23;;;;;;;1.23;0.57;;;;;;;;;;3603200;39;20412;-74
2021/06/23 05:07:52;;;;;;;1.20;0.55;;;19.30;99.90;;;;;;3597260;40;20450;-74
2021/06/23 05:10:18;;;;;;;1.83;0.50;;;19.20;99.90;;;;;;3597862;40;20404;-76
2021/06/23 05:12:44;;;;;;;3.30;0.60;;;19.10;99.90;;;;;;3597617;40;20396;-74
2021/06/23 05:15:11;;;;;;;0.90;0.50;;;19.30;99.90;;;;;;3598041;40;20380;-74
2021/06/23 05:17:37;;;;;;;1.52;0.57;;;19.40;99.90;;;;;;3597754;40;20660;-73
2021/06/23 05:20:04;;;;;;;1.05;0.50;;;19.60;99.90;;;;;;3597891;39;20384;-74
2021/06/23 05:22:30;;;;;;;0.98;0.55;;;19.70;99.90;;;;;;3598477;39;20385;-76
2021/06/23 05:24:58;;;;;;;1.42;0.50;;;19.70;99.90;;;;;;3598351;39;20457;-75
2021/06/23 05:27:24;;;;;;;1.95;0.63;;;19.60;99.90;;;;;;3597778;40;20384;-77
2021/06/23 05:29:50;;;;;;;3.00;0.70;;;19.60;99.90;;;;;;3588567;40;20784;-74
2021/06/23 05:32:16;;;;;;;0.95;0.60;;;19.80;99.90;;;;;;3598596;39;20384;-74
2021/06/23 05:34:42;;;;;;;1.60;0.60;;;19.80;99.90;;;;;;3598379;39;20396;-74
2021/06/23 05:37:07;;;;;;;1.83;0.50;;;19.80;99.90;;;;;;3598013;40;20631;-74
2021/06/23 05:39:34;;;;;;;2.67;0.77;;;;;;;;;;3598267;40;20384;-75
2021/06/23 05:42:01;;;;;;;2.78;0.60;;;19.90;99.90;;;;;;3605225;39;20482;-75
2021/06/23 05:44:28;;;;;;;9.60;0.70;;;19.80;99.90;;;;;;3588691;40;20400;-73
2021/06/23 05:46:54;;;;;;;2.03;0.52;;;19.80;99.90;;;;;;3597732;39;20418;-73
2021/06/23 05:49:20;;;;;;;1.60;0.47;;;19.80;99.90;;;;;;3597506;40;20397;-73
2021/06/23 05:51:46;;;;;;;1.08;0.50;;;19.90;99.90;;;;;;3597962;39;20380;-73
2021/06/23 05:54:12;;;;;;;1.73;0.50;;;19.90;99.90;;;;;;3597846;39;20463;-74
2021/06/23 05:56:38;;;;;;;1.23;0.55;;;;;;;;;;3598248;40;20369;-73
2021/06/23 05:59:06;;;;;;;2.40;0.55;;;19.90;99.90;;;;;;3599975;39;20387;-74
2021/06/23 06:01:32;;;;;;;2.10;0.70;;;20.10;99.90;;;;;;3597641;40;20396;-73
2021/06/23 06:03:58;;;;;;;1.20;0.55;;;20.20;99.90;;;;;;3597388;40;20770;-73
2021/06/23 06:06:24;;;;;;;1.00;0.60;;;20.20;99.90;;;;;;3597768;39;20396;-74
2021/06/23 06:08:50;;;;;;;1.50;0.50;;;20.20;99.90;;;;;;3597889;40;20465;-73
2021/06/23 06:11:16;;;;;;;1.17;0.50;;;20.10;99.90;;;;;;3597816;40;20380;-73
2021/06/23 06:13:42;;;;;;;2.85;0.50;;;20.20;99.90;;;;;;3597739;40;20395;-74
2021/06/23 06:16:09;;;;;;;2.70;0.70;;;20.20;99.90;;;;;;3597759;40;20384;-74
2021/06/23 06:18:35;;;;;;;2.63;0.50;;;20.30;99.90;;;;;;3597405;40;20424;-74
2021/06/23 06:21:01;;;;;;;1.63;0.50;;;20.30;99.90;;;;;;3597907;40;20762;-73
2021/06/23 06:23:27;;;;;;;1.40;0.63;;;20.40;99.90;;;;;;3595988;40;20416;-73
2021/06/23 06:25:53;;;;;;;1.30;0.60;;;20.50;99.90;;;;;;3595361;40;20380;-73
2021/06/23 06:28:20;;;;;;;1.67;0.50;;;20.60;99.90;;;;;;3596670;40;20392;-73
2021/06/23 06:30:46;;;;;;;4.45;0.70;;;20.60;99.90;;;;;;3597845;40;20404;-73
2021/06/23 06:33:14;;;;;;;1.83;0.47;;;20.70;99.90;;;;;;3592876;40;20431;-73
2021/06/23 06:35:40;;;;;;;1.00;0.50;;;20.80;99.90;;;;;;3597582;39;20381;-73
2021/06/23 06:38:06;;;;;;;0.80;0.50;;;20.80;99.90;;;;;;3598603;39;20400;-73
2021/06/23 06:40:32;;;;;;;1.88;0.60;;;20.90;99.90;;;;;;3591410;40;20393;-73
2021/06/23 06:42:58;;;;;;;0.80;0.40;;;;;;;;;;3587645;40;20393;-72
2021/06/23 06:45:25;;;;;;;1.00;0.35;;;;;;;;;;3597187;39;20381;-73
2021/06/23 06:47:51;;;;;;;1.45;0.50;;;;;;;;;;3598577;40;20384;-73
2021/06/23 06:50:21;;;;;;;2.10;0.38;;;;;;;;;;3601620;39;20436;-73
2021/06/23 06:52:47;;;;;;;1.20;0.50;;;;;;;;;;3598366;39;20397;-73
2021/06/23 06:55:20;;;;;;;1.33;0.50;;;;;;;;;;3598315;40;20375;-73
2021/06/23 06:57:47;;;;;;;1.80;0.40;;;;;;;;;;3598250;40;20364;-73
2021/06/23 07:00:13;;;;;;;1.00;0.57;;;21.00;99.90;;;;;;3597875;39;20430;-73
2021/06/23 07:02:39;;;;;;;1.30;0.50;;;21.40;99.90;;;;;;3598305;39;20437;-73
2021/06/23 07:05:06;;;;;;;0.97;0.43;;;21.60;99.90;;;;;;3600340;39;20404;-73
2021/06/23 07:07:33;;;;;;;1.30;0.40;;;21.70;99.90;;;;;;3597768;40;20438;-73
2021/06/23 07:09:59;;;;;;;1.40;0.40;;;21.90;99.90;;;;;;3597970;40;20715;-75
2021/06/23 07:12:25;;;;;;;2.20;0.70;;;22.00;99.90;;;;;;3598342;39;20396;-73
2021/06/23 07:14:51;;;;;;;0.80;0.47;;;22.20;99.90;;;;;;3597323;39;20466;-74
2021/06/23 07:17:17;;;;;;;1.52;0.57;;;22.30;99.90;;;;;;3591858;40;20531;-73
2021/06/23 07:19:43;;;;;;;1.58;0.55;;;22.40;99.90;;;;;;3598842;40;20387;-74
2021/06/23 07:22:09;;;;;;;0.87;0.40;;;22.60;99.90;;;;;;3598405;40;20411;-75
2021/06/23 07:24:36;;;;;;;1.00;0.40;;;22.70;99.90;;;;;;3598420;40;20389;-74
2021/06/23 07:27:04;;;;;;;2.63;0.50;;;22.90;99.90;;;;;;3591434;40;20397;-75
2021/06/23 07:29:30;;;;;;;1.35;0.40;;;23.10;99.60;;;;;;3598109;40;20396;-74
2021/06/23 07:37:03;;;;;;;2.00;0.50;;;;;;;;;;3598447;40;20360;-74
2021/06/23 07:39:30;;;;;;;3.10;0.60;;;23.40;99.40;;;;;;3600450;39;20456;-73
2021/06/23 07:41:57;;;;;;;1.50;0.60;;;23.60;99.30;;;;;;3598620;40;20395;-74
2021/06/23 07:44:33;;;;;;;1.00;0.38;;;23.80;98.10;;;;;;3598453;40;20392;-75
2021/06/23 07:47:03;;;;;;;0.57;0.40;;;23.90;98.40;;;;;;3598453;40;20399;-74
2021/06/23 07:49:31;;;;;;;3.27;0.60;;;24.00;97.90;;;;;;3598013;40;20416;-73
2021/06/23 08:10:42;;;;;;;0.77;0.40;;;25.00;94.80;;;;;;3595214;40;20372;-73
2021/06/23 08:13:11;;;;;;;1.42;0.50;;;25.10;94.80;;;;;;3596322;40;20404;-73
2021/06/23 08:15:39;;;;;;;0.65;0.50;;;25.10;95.90;;;;;;3598028;40;20385;-73
2021/06/23 08:18:06;;;;;;;1.60;0.30;;;25.10;95.90;;;;;;3597584;40;20684;-73
2021/06/23 08:20:32;;;;;;;1.23;0.33;;;25.30;94.90;;;;;;3597777;39;20396;-73
2021/06/23 08:22:58;;;;;;;1.55;0.50;;;25.40;95.00;;;;;;3594589;40;20478;-73
2021/06/23 08:25:24;;;;;;;2.08;0.40;;;25.50;94.80;;;;;;3597807;40;20770;-76
2021/06/23 08:27:51;;;;;;;1.73;0.40;;;;;;;;;;3588415;40;20428;-72
2021/06/23 08:30:20;;;;;;;1.33;0.40;;;;;;;;;;3597827;40;20399;-72
2021/06/23 08:32:46;;;;;;;1.60;0.60;;;;;;;;;;3597637;40;20385;-73
2021/06/23 08:35:13;;;;;;;1.40;0.43;;;;;;;;;;3597419;39;20758;-73
2021/06/23 08:37:40;;;;;;;1.35;0.50;;;;;;;;;;3597531;39;20380;-73
2021/06/23 08:40:07;;;;;;;2.75;0.50;;;;;;;;;;3597726;40;20375;-78
2021/06/23 08:42:33;;;;;;;1.85;0.50;;;;;;;;;;3597238;39;20384;-73
2021/06/23 08:45:00;;;;;;;1.48;0.50;;;;;;;;;;3599368;39;20746;-73
2021/06/23 08:47:27;;;;;;;1.40;0.50;;;;;;;;;;3592630;40;20450;-73
2021/06/23 08:49:53;;;;;;;1.30;0.90;;;;;;;;;;3597644;39;20396;-73
2021/06/23 08:52:20;;;;;;;2.13;0.80;;;;;;;;;;3597648;39;20397;-76
2021/06/23 08:54:53;;;;;;;2.20;0.88;;;;;;;;;;3598152;40;20761;-73
2021/06/23 08:57:19;;;;;;;1.05;0.60;;;;;;;;;;3597497;40;20727;-74
2021/06/23 08:59:45;;;;;;;1.50;0.50;;;;;;;;;;3597122;40;20435;-72
2021/06/23 09:02:12;;;;;;;1.50;0.60;;;;;;;;;;3597665;40;20376;-73
2021/06/23 09:04:54;;;;;;;2.30;0.60;;;;;;;;;;3589351;40;20424;-74
2021/06/23 09:07:35;;;;;;;1.92;0.50;;;;;;;;;;3597802;40;20738;-73
2021/06/23 09:10:01;;;;;;;1.90;0.50;;;;;;;;;;3588710;40;20384;-73
2021/06/23 09:12:27;;;;;;;2.35;0.80;;;;;;;;;;3597407;40;20614;-73
2021/06/23 09:14:54;;;;;;;2.47;0.60;;;;;;;;;;3597696;40;20451;-73
2021/06/23 09:17:20;;;;;;;3.30;0.75;;;;;;;;;;3597387;40;20372;-73
2021/06/23 09:19:48;;;;;;;2.40;0.80;;;;;;;;;;3597726;40;20377;-73
2021/06/23 09:22:35;;;;;;;2.97;0.80;;;;;;;;;;3593569;40;20416;-74
2021/06/23 09:25:02;;;;;;;1.97;0.80;;;;;;;;;;3595097;39;20469;-74
2021/06/23 09:27:30;;;;;;;2.53;0.90;;;;;;;;;;3597324;39;20388;-73
2021/06/23 09:30:19;;;;;;;2.03;0.82;;;;;;;;;;3595963;39;20431;-73
2021/06/23 09:33:04;;;;;;;2.40;0.75;;;;;;;;;;3597083;40;20415;-73
2021/06/23 09:35:31;;;;;;;2.58;0.70;;;;;;;;;;3597084;40;20396;-74
2021/06/23 09:37:58;;;;;;;1.60;0.60;;;;;;;;;;3597044;40;20407;-74
2021/06/23 09:40:29;;;;;;;2.20;0.82;;;;;;;;;;3597282;40;20389;-73
2021/06/23 09:43:00;;;;;;;3.58;0.80;;;;;;;;;;3597263;40;20406;-73
2021/06/23 09:45:26;;;;;;;2.08;0.60;;;;;;;;;;3597368;40;20365;-74
2021/06/23 09:47:58;;;;;;;1.60;0.70;;;;;;;;;;3590874;40;20376;-73
2021/06/23 09:50:25;;;;;;;2.37;0.70;;;;;;;;;;3597416;40;20751;-73
2021/06/23 09:52:54;;;;;;;2.00;0.60;;;;;;;;;;3596913;39;20357;-73
2021/06/23 09:55:20;;;;;;;3.15;0.98;;;;;;;;;;3594534;39;20404;-74
2021/06/23 09:58:01;;;;;;;2.90;0.93;;;;;;;;;;3597069;40;20384;-73
2021/06/23 10:00:29;;;;;;;2.03;0.70;;;;;;;;;;3596273;40;20396;-73
2021/06/23 10:03:02;;;;;;;2.08;0.90;;;;;;;;;;3594728;40;20506;-73
2021/06/23 10:05:29;;;;;;;2.67;0.80;;;;;;;;;;3596849;40;20434;-73
2021/06/23 10:07:56;;;;;;;2.80;0.77;;;;;;;;;;3595209;40;20391;-73
2021/06/23 10:10:24;;;;;;;1.97;0.60;;;;;;;;;;3596775;40;20385;-74
2021/06/23 10:12:51;;;;;;;2.25;0.80;;;;;;;;;;3597027;40;20408;-73
2021/06/23 10:15:17;;;;;;;3.77;1.00;;;;;;;;;;3598864;39;20383;-74
2021/06/23 10:17:44;;;;;;;3.15;1.05;;;25.60;94.40;;;;;;3596894;39;20381;-75
2021/06/23 10:20:12;;;;;;;2.03;0.65;;;27.80;93.20;;;;;;3596699;39;20396;-73
2021/06/23 10:22:40;;;;;;;2.88;0.95;;;27.70;93.70;;;;;;3602308;39;20379;-74
2021/06/23 10:25:11;;;;;;;3.28;0.80;;;27.70;92.90;;;;;;3598275;39;20462;-74
2021/06/23 10:27:41;;;;;;;2.20;0.98;;;27.70;93.30;;;;;;3598126;40;20361;-74
2021/06/23 10:30:09;;;;;;;2.85;0.88;;;27.60;93.90;;;;;;3598685;39;20442;-75
2021/06/23 10:32:35;;;;;;;3.60;1.00;;;27.80;93.70;;;;;;3601143;39;20418;-74
2021/06/23 10:35:01;;;;;;;2.23;0.60;;;;;;;;;;3596018;40;20668;-71
2021/06/23 10:37:28;;;;;;;7.07;1.00;;;27.90;92.90;;;;;;3597887;39;20380;-72
2021/06/23 10:39:55;;;;;;;2.85;0.90;;;27.90;93.10;;;;;;3598571;40;20493;-73
2021/06/23 10:42:24;;;;;;;2.03;0.80;;;27.90;93.30;;;;;;3591408;39;20391;-72
2021/06/23 10:44:53;;;;;;;2.00;0.60;;;;;;;;;;3598388;40;20391;-73
2021/06/23 10:47:28;;;;;;;2.42;0.70;;;;;;;;;;3599015;39;20380;-71
2021/06/23 10:49:54;;;;;;;2.20;1.00;;;;;;;;;;3598764;39;20368;-71
2021/06/23 10:52:33;;;;;;;2.20;0.85;;;;;;;;;;3598277;39;20376;-72
2021/06/23 10:55:00;;;;;;;3.03;0.75;;;;;;;;;;3598847;40;20812;-74
2021/06/23 10:57:28;;;;;;;1.50;0.63;;;;;;;;;;3598325;39;20381;-73
2021/06/23 10:59:55;;;;;;;4.40;0.80;;;28.00;93.00;;;;;;3597638;40;20380;-74
2021/06/23 11:02:29;;;;;;;4.07;1.10;;;;;;;;;;3597121;39;20522;-74
2021/06/23 11:05:06;;;;;;;2.80;0.70;;;;;;;;;;3599933;39;20410;-74
2021/06/23 11:07:35;;;;;;;2.20;0.90;;;;;;;;;;3597932;39;20388;-74
2021/06/23 11:10:17;;;;;;;3.50;0.70;;;;;;;;;;3598383;40;20369;-74
2021/06/23 11:12:49;;;;;;;2.72;0.73;;;;;;;;;;3598544;40;20377;-74
2021/06/23 11:15:17;;;;;;;2.55;0.95;;;;;;;;;;3600120;39;20381;-74
2021/06/23 11:17:43;;;;;;;2.95;1.10;;;28.10;93.30;;;;;;3598529;40;20494;-74
2021/06/23 11:20:40;;;;;;;2.30;0.90;;;28.60;92.00;;;;;;3598124;39;20394;-74
2021/06/23 11:23:07;;;;;;;1.60;0.90;;;;;;;;;;3599738;39;20389;-74
2021/06/23 11:25:34;;;;;;;1.83;0.90;;;;;;;;;;3598249;40;20458;-74
2021/06/23 11:28:15;;;;;;;1.70;0.90;;;;;;;;;;3598108;40;20375;-74
2021/06/23 11:31:03;;;;;;;3.17;0.70;;;;;;;;;;3580830;40;20424;-74
2021/06/23 11:33:45;;;;;;;2.25;0.90;;;;;;;;;;3589724;39;20381;-73
2021/06/23 11:36:14;;;;;;;2.50;0.90;;;;;;;;;;3596107;40;20400;-74
2021/06/23 11:38:40;;;;;;;3.20;0.90;;;;;;;;;;3598139;40;20675;-74
2021/06/23 11:41:07;;;;;;;3.30;1.00;;;;;;;;;;3597828;39;20688;-74
2021/06/23 11:43:33;;;;;;;2.30;0.90;;;;;;;;;;3596639;39;20718;-74
2021/06/23 11:46:00;;;;;;;2.83;0.97;;;;;;;;;;3598578;40;20365;-74
2021/06/23 11:48:26;;;;;;;2.63;0.90;;;;;;;;;;3588601;40;20400;-74
2021/06/23 11:50:53;;;;;;;2.23;0.80;;;;;;;;;;3598310;40;20465;-74
2021/06/23 11:53:21;;;;;;;2.50;0.80;;;;;;;;;;3597281;40;20415;-74
2021/06/23 11:55:48;;;;;;;1.33;0.80;;;;;;;;;;3597916;40;20396;-74
2021/06/23 11:58:14;;;;;;;2.30;0.77;;;;;;;;;;3598365;40;20473;-74
2021/06/23 12:00:42;;;;;;;4.28;0.70;;;;;;;;;;3597709;40;20372;-74
2021/06/23 12:03:09;;;;;;;2.05;0.90;;;;;;;;;;3597745;40;20375;-74
2021/06/23 12:05:35;;;;;;;3.58;0.93;;;;;;;;;;3598406;40;20401;-74
2021/06/23 12:08:02;;;;;;;8.55;1.20;;;;;;;;;;3595090;40;20395;-73
2021/06/23 12:10:30;;;;;;;1.97;1.07;;;;;;;;;;3602991;39;20389;-74
2021/06/23 12:12:57;;;;;;;3.03;1.10;;;;;;;;;;3598022;39;20381;-74
2021/06/23 12:15:24;;;;;;;3.28;0.80;;;;;;;;;;3589164;40;20412;-74
2021/06/23 12:17:51;;;;;;;3.83;0.90;;;;;;;;;;3598013;40;20364;-74
2021/06/23 12:20:18;;;;;;;1.98;0.90;;;;;;;;;;3597695;40;20611;-74
2021/06/23 12:22:44;;;;;;;2.65;0.80;;;;;;;;;;3590334;40;20421;-73
2021/06/23 12:25:14;;;;;;;2.00;0.75;;;;;;;;;;3597508;40;20369;-73
2021/06/23 12:27:41;;;;;;;2.33;0.85;;;;;;;;;;3597889;39;20463;-74
2021/06/23 12:30:08;;;;;;;1.60;0.80;;;;;;;;;;3597010;40;20380;-72
2021/06/23 12:32:35;;;;;;;1.73;0.70;;;;;;;;;;3600054;39;20741;-72
2021/06/23 12:35:04;;;;;;;2.85;0.80;;;;;;;;;;3594943;39;20388;-72
2021/06/23 12:37:31;;;;;;;3.88;0.88;;;;;;;;;;3597730;40;20376;-75
2021/06/23 12:39:57;;;;;;;2.25;0.82;;;;;;;;;;3594108;39;20402;-74
2021/06/23 12:42:23;;;;;;;2.78;0.73;;;;;;;;;;3600156;39;20384;-74
2021/06/23 12:47:36;;;;;;;2.50;1.00;;;;;;;;;;3595779;39;20454;-71
2021/06/23 12:50:02;;;;;;;2.33;1.00;;;28.60;91.50;;;;;;3595588;39;20396;-71
2021/06/23 12:52:29;;;;;;;3.90;1.10;;;;;;;;;;3595474;40;20385;-72
2021/06/23 12:54:55;;;;;;;2.53;0.90;;;28.20;93.00;;;;;;3586695;40;20392;-72
2021/06/23 12:57:21;;;;;;;3.13;1.02;;;27.80;94.00;;;;;;3596295;40;20425;-72
2021/06/23 12:59:48;;;;;;;4.80;1.00;;;27.80;94.40;;;;;;3596395;40;20457;-76
2021/06/23 13:02:15;;;;;;;1.58;0.90;;;;;;;;;;3595753;40;20388;-73
2021/06/23 13:04:41;;;;;;;2.05;1.20;;;;;;;;;;3596809;40;20501;-73
2021/06/23 13:07:08;;;;;;;2.80;1.25;;;;;;;;;;3597195;40;20391;-72
2021/06/23 13:09:34;;;;;;;2.78;0.77;;;;;;;;;;3596610;39;20409;-72
2021/06/23 13:12:01;;;;;;;4.20;1.08;;;;;;;;;;3597026;40;20387;-72
2021/06/23 13:14:27;;;;;;;4.57;1.02;;;;;;;;;;3596017;40;20396;-72
2021/06/23 13:16:54;;;;;;;3.40;1.20;;;;;;;;;;3587778;40;20400;-73
2021/06/23 13:19:21;;;;;;;2.15;0.80;;;;;;;;;;3587120;40;20396;-73
2021/06/23 13:21:48;;;;;;;2.47;1.20;;;;;;;;;;3595657;39;20782;-73
2021/06/23 13:24:16;;;;;;;2.33;0.85;;;;;;;;;;3590352;39;20584;-72
2021/06/23 13:26:43;;;;;;;2.60;1.00;;;;;;;;;;3592582;40;20398;-72
2021/06/23 13:29:09;;;;;;;3.23;1.40;;;;;;;;;;3590132;40;20837;-71
2021/06/23 13:31:35;;;;;;;5.00;1.23;;;;;;;;;;3590341;40;20787;-72
2021/06/23 13:34:01;;;;;;;2.90;1.10;;;;;;;;;;3590473;40;20396;-74
2021/06/23 13:36:29;;;;;;;2.80;1.10;;;;;;;;;;3590832;39;20766;-72
2021/06/23 13:38:55;;;;;;;2.90;1.30;;;;;;;;;;3590255;40;20429;-72
2021/06/23 13:41:21;;;;;;;3.47;1.30;;;;;;;;;;3591067;40;20396;-73
2021/06/23 13:43:48;;;;;;;3.67;1.50;;;;;;;;;;3593066;40;20497;-72
2021/06/23 13:46:14;;;;;;;3.22;1.25;;;;;;;;;;3590112;40;20380;-72
2021/06/23 13:48:40;;;;;;;4.82;1.10;;;;;;;;;;3597390;39;20689;-73
2021/06/23 13:51:07;;;;;;;3.67;1.23;;;;;;;;;;3588917;40;20396;-72
2021/06/23 13:53:34;;;;;;;4.25;1.13;;;27.80;94.10;;;;;;3589893;40;20410;-72
2021/06/23 13:56:00;;;;;;;3.55;1.40;;;26.70;96.50;;;;;;3589878;40;20401;-74